sensor_id;sensor_type;location;lat;lon;timestamp;noise_LAeq;noise_LA_min;noise_LA_max;noise_LA01;noise_LA95
49543;Laerm;35435;48.792;8.962;2022-08-03T00:00:37;47.00;41.28;58.25;;
49543;Laerm;35435;48.792;8.962;2022-08-03T00:03:02;45.54;41.46;60.87;;
49543;Laerm;35435;48.792;8.962;2022-08-03T00:05:28;46.84;42.30;58.33;;
49543;Laerm;35435;48.792;8.962;2022-08-03T00:07:53;45.94;42.16;53.68;;
49543;Laerm;35435;48.792;8.962;2022-08-03T00:10:19;46.21;42.50;52.08;;
49543;Laerm;35435;48.792;8.962;2022-08-03T00:12:44;45.00;41.42;49.40;;
49543;Laerm;35435;48.792;8.962;2022-08-03T00:15:10;45.49;42.23;52.33;;
49543;Laerm;35435;48.792;8.962;2022-08-03T00:17:35;45.35;42.40;49.59;;
49543;Laerm;35435;48.792;8.962;2022-08-03T00:20:00;44.92;42.14;48.71;;
49543;Laerm;35435;48.792;8.962;2022-08-03T00:22:26;44.52;40.67;48.44;;
49543;Laerm;35435;48.792;8.962;2022-08-03T00:24:51;44.26;40.62;48.21;;
49543;Laerm;35435;48.792;8.962;2022-08-03T00:27:17;44.17;41.28;47.57;;
49543;Laerm;35435;48.792;8.962;2022-08-03T00:29:42;44.81;41.04;61.33;;
49543;Laerm;35435;48.792;8.962;2022-08-03T00:32:07;45.80;41.84;53.92;;
49543;Laerm;35435;48.792;8.962;2022-08-03T00:34:33;45.19;41.42;50.68;;
49543;Laerm;35435;48.792;8.962;2022-08-03T00:36:58;45.30;41.96;64.12;;
49543;Laerm;35435;48.792;8.962;2022-08-03T00:39:23;44.84;40.93;48.68;;
49543;Laerm;35435;48.792;8.962;2022-08-03T00:41:49;44.93;40.23;50.41;;
49543;Laerm;35435;48.792;8.962;2022-08-03T00:44:14;45.87;41.94;50.59;;
49543;Laerm;35435;48.792;8.962;2022-08-03T00:46:40;45.66;41.44;50.93;;
49543;Laerm;35435;48.792;8.962;2022-08-03T00:49:05;47.25;42.92;52.77;;
49543;Laerm;35435;48.792;8.962;2022-08-03T00:51:30;45.35;41.10;51.10;;
49543;Laerm;35435;48.792;8.962;2022-08-03T00:53:56;46.27;42.38;52.50;;
49543;Laerm;35435;48.792;8.962;2022-08-03T00:56:21;46.82;42.40;56.15;;
49543;Laerm;35435;48.792;8.962;2022-08-03T00:58:46;46.47;41.32;62.80;;
49543;Laerm;35435;48.792;8.962;2022-08-03T01:01:12;47.81;42.59;55.45;;
49543;Laerm;35435;48.792;8.962;2022-08-03T01:03:38;47.19;40.13;57.05;;
49543;Laerm;35435;48.792;8.962;2022-08-03T01:08:46;44.33;39.61;52.59;;
49543;Laerm;35435;48.792;8.962;2022-08-03T01:13:52;45.39;41.26;50.52;;
49543;Laerm;35435;48.792;8.962;2022-08-03T01:16:08;46.43;42.01;50.50;;
49543;Laerm;35435;48.792;8.962;2022-08-03T01:18:42;46.04;42.35;58.73;;
49543;Laerm;35435;48.792;8.962;2022-08-03T01:21:05;46.14;42.09;52.52;;
49543;Laerm;35435;48.792;8.962;2022-08-03T01:31:39;46.45;42.18;53.91;;
49543;Laerm;35435;48.792;8.962;2022-08-03T01:34:05;45.42;41.79;60.93;;
49543;Laerm;35435;48.792;8.962;2022-08-03T01:36:33;45.25;41.20;50.25;;
49543;Laerm;35435;48.792;8.962;2022-08-03T01:39:00;47.06;43.10;51.57;;
49543;Laerm;35435;48.792;8.962;2022-08-03T01:41:34;48.37;42.65;55.86;;
49543;Laerm;35435;48.792;8.962;2022-08-03T01:43:56;46.83;43.21;52.27;;
49543;Laerm;35435;48.792;8.962;2022-08-03T01:46:22;45.99;42.98;50.25;;
49543;Laerm;35435;48.792;8.962;2022-08-03T01:48:49;46.14;43.06;51.93;;
49543;Laerm;35435;48.792;8.962;2022-08-03T01:51:17;46.20;43.17;51.31;;
49543;Laerm;35435;48.792;8.962;2022-08-03T01:53:43;46.42;43.34;51.59;;
49543;Laerm;35435;48.792;8.962;2022-08-03T01:56:09;47.40;43.28;53.22;;
49543;Laerm;35435;48.792;8.962;2022-08-03T01:58:35;47.12;43.95;51.51;;
49543;Laerm;35435;48.792;8.962;2022-08-03T02:01:01;59.00;43.61;82.07;;
49543;Laerm;35435;48.792;8.962;2022-08-03T02:03:28;47.65;43.78;53.21;;
49543;Laerm;35435;48.792;8.962;2022-08-03T02:05:54;47.36;43.51;51.15;;
49543;Laerm;35435;48.792;8.962;2022-08-03T02:08:20;46.99;43.57;61.42;;
49543;Laerm;35435;48.792;8.962;2022-08-03T02:10:48;47.89;43.22;54.40;;
49543;Laerm;35435;48.792;8.962;2022-08-03T02:13:14;46.78;42.04;53.56;;
49543;Laerm;35435;48.792;8.962;2022-08-03T02:15:40;47.00;43.56;51.22;;
49543;Laerm;35435;48.792;8.962;2022-08-03T02:18:08;45.86;42.27;51.17;;
49543;Laerm;35435;48.792;8.962;2022-08-03T02:20:34;46.04;43.36;49.78;;
49543;Laerm;35435;48.792;8.962;2022-08-03T02:23:02;46.37;43.44;52.37;;
49543;Laerm;35435;48.792;8.962;2022-08-03T02:25:28;47.31;43.55;54.07;;
49543;Laerm;35435;48.792;8.962;2022-08-03T02:27:55;47.38;44.13;52.05;;
49543;Laerm;35435;48.792;8.962;2022-08-03T02:30:21;47.34;44.01;51.25;;
49543;Laerm;35435;48.792;8.962;2022-08-03T02:32:50;47.04;43.44;51.65;;
49543;Laerm;35435;48.792;8.962;2022-08-03T02:35:16;46.57;42.69;51.83;;
49543;Laerm;35435;48.792;8.962;2022-08-03T02:37:44;47.54;44.16;52.77;;
49543;Laerm;35435;48.792;8.962;2022-08-03T02:40:10;46.89;43.74;53.60;;
49543;Laerm;35435;48.792;8.962;2022-08-03T02:42:37;45.90;42.94;50.75;;
49543;Laerm;35435;48.792;8.962;2022-08-03T02:45:04;59.47;43.12;80.66;;
49543;Laerm;35435;48.792;8.962;2022-08-03T02:47:30;46.67;43.06;50.62;;
49543;Laerm;35435;48.792;8.962;2022-08-03T02:49:56;46.65;43.22;58.51;;
49543;Laerm;35435;48.792;8.962;2022-08-03T02:52:24;47.77;44.43;54.70;;
49543;Laerm;35435;48.792;8.962;2022-08-03T02:54:52;50.38;44.89;58.93;;
49543;Laerm;35435;48.792;8.962;2022-08-03T02:57:18;47.01;43.62;50.97;;
49543;Laerm;35435;48.792;8.962;2022-08-03T02:59:44;49.00;44.48;54.44;;
49543;Laerm;35435;48.792;8.962;2022-08-03T03:02:10;58.37;43.96;76.92;;
49543;Laerm;35435;48.792;8.962;2022-08-03T03:04:36;48.27;44.81;53.35;;
49543;Laerm;35435;48.792;8.962;2022-08-03T03:07:02;62.56;44.61;84.09;;
49543;Laerm;35435;48.792;8.962;2022-08-03T03:11:55;48.52;44.82;53.82;;
49543;Laerm;35435;48.792;8.962;2022-08-03T03:14:21;48.99;44.82;58.97;;
49543;Laerm;35435;48.792;8.962;2022-08-03T03:16:47;60.98;44.76;78.98;;
49543;Laerm;35435;48.792;8.962;2022-08-03T03:19:13;57.72;44.68;72.79;;
49543;Laerm;35435;48.792;8.962;2022-08-03T03:21:38;47.74;44.65;52.68;;
49543;Laerm;35435;48.792;8.962;2022-08-03T03:24:05;47.32;44.50;52.78;;
49543;Laerm;35435;48.792;8.962;2022-08-03T03:26:30;48.40;45.16;53.62;;
49543;Laerm;35435;48.792;8.962;2022-08-03T03:28:56;49.26;45.42;53.91;;
49543;Laerm;35435;48.792;8.962;2022-08-03T03:31:22;60.49;45.61;80.27;;
49543;Laerm;35435;48.792;8.962;2022-08-03T03:33:47;48.95;45.19;58.30;;
49543;Laerm;35435;48.792;8.962;2022-08-03T03:36:13;49.52;45.23;59.33;;
49543;Laerm;35435;48.792;8.962;2022-08-03T03:38:39;49.49;45.32;55.22;;
49543;Laerm;35435;48.792;8.962;2022-08-03T03:41:04;49.32;45.06;55.08;;
49543;Laerm;35435;48.792;8.962;2022-08-03T03:43:30;49.71;45.98;56.15;;
49543;Laerm;35435;48.792;8.962;2022-08-03T03:45:56;60.79;47.23;77.40;;
49543;Laerm;35435;48.792;8.962;2022-08-03T03:48:23;50.54;46.77;55.42;;
49543;Laerm;35435;48.792;8.962;2022-08-03T03:50:48;50.57;46.29;58.86;;
49543;Laerm;35435;48.792;8.962;2022-08-03T03:53:14;51.23;47.44;56.95;;
49543;Laerm;35435;48.792;8.962;2022-08-03T03:55:40;51.63;47.43;57.00;;
49543;Laerm;35435;48.792;8.962;2022-08-03T03:58:06;50.09;46.00;54.41;;
49543;Laerm;35435;48.792;8.962;2022-08-03T04:00:32;58.12;46.21;78.89;;
49543;Laerm;35435;48.792;8.962;2022-08-03T04:02:57;51.43;46.88;56.71;;
49543;Laerm;35435;48.792;8.962;2022-08-03T04:05:23;55.93;47.06;71.02;;
49543;Laerm;35435;48.792;8.962;2022-08-03T04:08:08;51.16;46.50;62.68;;
49543;Laerm;35435;48.792;8.962;2022-08-03T04:13:34;51.30;46.60;57.54;;
49543;Laerm;35435;48.792;8.962;2022-08-03T04:15:56;60.04;48.25;81.64;;
49543;Laerm;35435;48.792;8.962;2022-08-03T04:18:23;59.34;49.05;76.51;;
49543;Laerm;35435;48.792;8.962;2022-08-03T04:20:50;52.19;47.13;57.70;;
49543;Laerm;35435;48.792;8.962;2022-08-03T04:23:18;51.95;47.68;59.52;;
49543;Laerm;35435;48.792;8.962;2022-08-03T04:25:44;52.38;48.63;56.99;;
49543;Laerm;35435;48.792;8.962;2022-08-03T04:28:10;52.66;47.80;58.52;;
49543;Laerm;35435;48.792;8.962;2022-08-03T04:30:36;58.08;48.82;77.36;;
49543;Laerm;35435;48.792;8.962;2022-08-03T04:33:02;59.01;48.19;75.27;;
49543;Laerm;35435;48.792;8.962;2022-08-03T04:35:30;52.10;47.97;56.75;;
49543;Laerm;35435;48.792;8.962;2022-08-03T04:37:55;51.48;47.65;62.31;;
49543;Laerm;35435;48.792;8.962;2022-08-03T04:40:32;51.33;47.15;61.94;;
49543;Laerm;35435;48.792;8.962;2022-08-03T04:42:58;50.76;46.15;55.56;;
49543;Laerm;35435;48.792;8.962;2022-08-03T04:45:24;59.68;47.27;79.41;;
49543;Laerm;35435;48.792;8.962;2022-08-03T04:47:51;59.43;47.18;75.66;;
49543;Laerm;35435;48.792;8.962;2022-08-03T04:50:16;51.31;47.16;57.77;;
49543;Laerm;35435;48.792;8.962;2022-08-03T04:52:42;51.92;47.74;57.57;;
49543;Laerm;35435;48.792;8.962;2022-08-03T04:55:07;51.12;46.83;57.06;;
49543;Laerm;35435;48.792;8.962;2022-08-03T04:57:33;52.01;47.70;58.88;;
49543;Laerm;35435;48.792;8.962;2022-08-03T04:59:58;56.30;47.20;72.83;;
49543;Laerm;35435;48.792;8.962;2022-08-03T05:02:24;57.44;47.19;76.25;;
49543;Laerm;35435;48.792;8.962;2022-08-03T05:04:49;64.98;46.56;81.99;;
49543;Laerm;35435;48.792;8.962;2022-08-03T05:07:15;51.40;46.94;57.64;;
49543;Laerm;35435;48.792;8.962;2022-08-03T05:09:41;51.30;45.90;61.39;;
49543;Laerm;35435;48.792;8.962;2022-08-03T05:12:06;48.93;45.93;54.47;;
49543;Laerm;35435;48.792;8.962;2022-08-03T05:14:32;50.12;46.12;62.82;;
49543;Laerm;35435;48.792;8.962;2022-08-03T05:16:57;61.82;46.94;82.12;;
49543;Laerm;35435;48.792;8.962;2022-08-03T05:19:23;49.84;46.13;54.82;;
49543;Laerm;35435;48.792;8.962;2022-08-03T05:21:48;54.59;45.91;73.42;;
49543;Laerm;35435;48.792;8.962;2022-08-03T05:24:14;49.98;46.11;56.27;;
49543;Laerm;35435;48.792;8.962;2022-08-03T05:26:39;50.50;46.82;58.97;;
49543;Laerm;35435;48.792;8.962;2022-08-03T05:29:04;49.91;45.67;60.67;;
49543;Laerm;35435;48.792;8.962;2022-08-03T05:31:30;60.12;45.15;73.63;;
49543;Laerm;35435;48.792;8.962;2022-08-03T05:33:55;50.19;45.59;60.68;;
49543;Laerm;35435;48.792;8.962;2022-08-03T05:36:21;49.34;45.64;59.09;;
49543;Laerm;35435;48.792;8.962;2022-08-03T05:38:46;48.73;45.44;53.35;;
49543;Laerm;35435;48.792;8.962;2022-08-03T05:41:12;49.07;45.38;61.12;;
49543;Laerm;35435;48.792;8.962;2022-08-03T05:43:37;48.45;45.51;61.15;;
49543;Laerm;35435;48.792;8.962;2022-08-03T05:46:02;59.04;44.95;77.58;;
49543;Laerm;35435;48.792;8.962;2022-08-03T05:48:28;59.34;44.88;73.25;;
49543;Laerm;35435;48.792;8.962;2022-08-03T05:50:53;47.56;43.82;59.42;;
49543;Laerm;35435;48.792;8.962;2022-08-03T05:53:18;47.39;44.38;60.67;;
49543;Laerm;35435;48.792;8.962;2022-08-03T05:55:44;47.25;44.19;52.53;;
49543;Laerm;35435;48.792;8.962;2022-08-03T05:58:09;47.18;44.55;59.10;;
49543;Laerm;35435;48.792;8.962;2022-08-03T06:00:35;57.63;44.16;77.15;;
49543;Laerm;35435;48.792;8.962;2022-08-03T06:03:00;55.60;43.87;72.22;;
49543;Laerm;35435;48.792;8.962;2022-08-03T06:05:26;47.72;43.85;62.02;;
49543;Laerm;35435;48.792;8.962;2022-08-03T06:07:52;45.45;43.42;54.81;;
49543;Laerm;35435;48.792;8.962;2022-08-03T06:10:18;45.66;43.13;59.98;;
49543;Laerm;35435;48.792;8.962;2022-08-03T06:12:44;49.23;43.50;57.77;;
49543;Laerm;35435;48.792;8.962;2022-08-03T06:15:11;59.57;43.64;78.53;;
49543;Laerm;35435;48.792;8.962;2022-08-03T06:17:43;45.46;42.96;61.09;;
49543;Laerm;35435;48.792;8.962;2022-08-03T06:20:04;57.42;43.53;73.14;;
49543;Laerm;35435;48.792;8.962;2022-08-03T06:22:30;45.38;43.19;60.43;;
49543;Laerm;35435;48.792;8.962;2022-08-03T06:24:55;70.24;43.32;84.69;;
49543;Laerm;35435;48.792;8.962;2022-08-03T06:27:22;48.95;43.38;64.96;;
49543;Laerm;35435;48.792;8.962;2022-08-03T06:29:47;57.12;43.13;76.27;;
49543;Laerm;35435;48.792;8.962;2022-08-03T06:32:13;56.39;43.23;72.25;;
49543;Laerm;35435;48.792;8.962;2022-08-03T06:34:38;45.01;42.64;52.99;;
49543;Laerm;35435;48.792;8.962;2022-08-03T06:37:04;44.65;42.53;61.59;;
49543;Laerm;35435;48.792;8.962;2022-08-03T06:39:29;44.72;42.58;58.48;;
49543;Laerm;35435;48.792;8.962;2022-08-03T06:41:55;45.14;42.49;63.31;;
49543;Laerm;35435;48.792;8.962;2022-08-03T06:44:22;46.79;42.08;58.91;;
49543;Laerm;35435;48.792;8.962;2022-08-03T06:46:47;59.56;42.92;77.49;;
49543;Laerm;35435;48.792;8.962;2022-08-03T06:49:12;59.33;41.89;77.53;;
49543;Laerm;35435;48.792;8.962;2022-08-03T06:51:38;61.65;41.75;72.42;;
49543;Laerm;35435;48.792;8.962;2022-08-03T06:54:03;44.15;41.26;60.29;;
49543;Laerm;35435;48.792;8.962;2022-08-03T06:56:28;43.94;41.26;56.62;;
49543;Laerm;35435;48.792;8.962;2022-08-03T06:58:54;44.05;41.36;60.83;;
49543;Laerm;35435;48.792;8.962;2022-08-03T07:01:19;59.04;42.29;76.73;;
49543;Laerm;35435;48.792;8.962;2022-08-03T07:03:44;44.50;41.97;60.67;;
49543;Laerm;35435;48.792;8.962;2022-08-03T07:06:10;44.57;41.12;60.38;;
49543;Laerm;35435;48.792;8.962;2022-08-03T07:08:35;43.71;41.02;59.63;;
49543;Laerm;35435;48.792;8.962;2022-08-03T07:11:01;59.15;41.14;81.66;;
49543;Laerm;35435;48.792;8.962;2022-08-03T07:13:26;43.11;41.00;59.52;;
49543;Laerm;35435;48.792;8.962;2022-08-03T07:15:52;60.28;41.28;79.51;;
49543;Laerm;35435;48.792;8.962;2022-08-03T07:18:17;57.81;41.40;76.62;;
49543;Laerm;35435;48.792;8.962;2022-08-03T07:20:42;43.18;40.67;62.63;;
49543;Laerm;35435;48.792;8.962;2022-08-03T07:23:08;67.39;40.11;88.98;;
49543;Laerm;35435;48.792;8.962;2022-08-03T07:25:34;42.73;40.05;59.44;;
49543;Laerm;35435;48.792;8.962;2022-08-03T07:27:59;42.97;40.28;59.35;;
49543;Laerm;35435;48.792;8.962;2022-08-03T07:30:24;57.05;40.43;78.42;;
49543;Laerm;35435;48.792;8.962;2022-08-03T07:32:50;56.20;40.57;72.17;;
49543;Laerm;35435;48.792;8.962;2022-08-03T07:35:15;43.25;39.08;57.26;;
49543;Laerm;35435;48.792;8.962;2022-08-03T07:37:40;43.00;39.92;58.86;;
49543;Laerm;35435;48.792;8.962;2022-08-03T07:40:06;43.40;40.64;60.00;;
49543;Laerm;35435;48.792;8.962;2022-08-03T07:42:31;43.60;40.64;58.67;;
49543;Laerm;35435;48.792;8.962;2022-08-03T07:44:57;58.53;39.95;76.88;;
49543;Laerm;35435;48.792;8.962;2022-08-03T07:47:27;58.61;40.69;75.26;;
49543;Laerm;35435;48.792;8.962;2022-08-03T07:49:53;44.34;40.62;55.18;;
49543;Laerm;35435;48.792;8.962;2022-08-03T07:52:19;43.25;40.88;63.71;;
49543;Laerm;35435;48.792;8.962;2022-08-03T07:55:04;44.94;41.60;59.09;;
49543;Laerm;35435;48.792;8.962;2022-08-03T07:57:30;43.95;41.61;57.29;;
49543;Laerm;35435;48.792;8.962;2022-08-03T07:59:56;56.53;41.57;75.27;;
49543;Laerm;35435;48.792;8.962;2022-08-03T08:02:21;56.62;41.46;74.05;;
49543;Laerm;35435;48.792;8.962;2022-08-03T08:04:47;43.87;40.69;58.23;;
49543;Laerm;35435;48.792;8.962;2022-08-03T08:07:12;43.35;41.24;49.98;;
49543;Laerm;35435;48.792;8.962;2022-08-03T08:09:37;45.17;41.02;59.48;;
49543;Laerm;35435;48.792;8.962;2022-08-03T08:12:03;43.29;40.91;59.27;;
49543;Laerm;35435;48.792;8.962;2022-08-03T08:14:29;46.66;41.10;56.45;;
49543;Laerm;35435;48.792;8.962;2022-08-03T08:16:55;62.66;42.61;78.43;;
49543;Laerm;35435;48.792;8.962;2022-08-03T08:19:20;46.54;41.75;63.94;;
49543;Laerm;35435;48.792;8.962;2022-08-03T08:21:45;43.62;40.73;51.87;;
49543;Laerm;35435;48.792;8.962;2022-08-03T08:24:11;52.42;41.88;65.82;;
49543;Laerm;35435;48.792;8.962;2022-08-03T08:26:36;44.35;41.50;56.96;;
49543;Laerm;35435;48.792;8.962;2022-08-03T08:29:02;48.37;41.42;68.57;;
49543;Laerm;35435;48.792;8.962;2022-08-03T08:31:28;60.38;41.81;76.56;;
49543;Laerm;35435;48.792;8.962;2022-08-03T08:33:53;44.84;41.57;57.58;;
49543;Laerm;35435;48.792;8.962;2022-08-03T08:36:19;43.67;40.73;53.99;;
49543;Laerm;35435;48.792;8.962;2022-08-03T08:38:44;44.14;40.73;51.26;;
49543;Laerm;35435;48.792;8.962;2022-08-03T08:41:10;48.41;41.12;72.14;;
49543;Laerm;35435;48.792;8.962;2022-08-03T08:43:35;44.53;40.85;55.09;;
49543;Laerm;35435;48.792;8.962;2022-08-03T08:46:01;58.18;41.81;73.37;;
49543;Laerm;35435;48.792;8.962;2022-08-03T08:48:27;58.41;41.73;72.77;;
49543;Laerm;35435;48.792;8.962;2022-08-03T08:50:54;45.61;41.63;60.66;;
49543;Laerm;35435;48.792;8.962;2022-08-03T08:53:20;52.21;41.98;70.52;;
49543;Laerm;35435;48.792;8.962;2022-08-03T08:55:46;56.39;41.82;74.83;;
49543;Laerm;35435;48.792;8.962;2022-08-03T08:58:12;48.49;41.84;63.68;;
49543;Laerm;35435;48.792;8.962;2022-08-03T09:00:40;66.40;41.72;85.19;;
49543;Laerm;35435;48.792;8.962;2022-08-03T09:03:05;57.54;40.95;74.54;;
49543;Laerm;35435;48.792;8.962;2022-08-03T09:05:30;55.82;41.81;72.60;;
49543;Laerm;35435;48.792;8.962;2022-08-03T09:07:57;51.03;41.60;75.25;;
49543;Laerm;35435;48.792;8.962;2022-08-03T09:10:22;65.54;42.04;82.28;;
49543;Laerm;35435;48.792;8.962;2022-08-03T09:12:49;45.82;41.81;67.02;;
49543;Laerm;35435;48.792;8.962;2022-08-03T09:15:25;60.77;41.07;79.02;;
49543;Laerm;35435;48.792;8.962;2022-08-03T09:17:52;58.28;41.06;72.51;;
49543;Laerm;35435;48.792;8.962;2022-08-03T09:20:20;47.20;40.89;69.98;;
49543;Laerm;35435;48.792;8.962;2022-08-03T09:22:53;43.25;41.01;57.52;;
49543;Laerm;35435;48.792;8.962;2022-08-03T09:25:19;43.51;40.11;51.11;;
49543;Laerm;35435;48.792;8.962;2022-08-03T09:27:44;43.12;40.41;58.33;;
49543;Laerm;35435;48.792;8.962;2022-08-03T09:30:14;57.64;40.55;77.23;;
49543;Laerm;35435;48.792;8.962;2022-08-03T09:32:40;56.59;41.79;71.96;;
49543;Laerm;35435;48.792;8.962;2022-08-03T09:35:06;42.59;40.05;59.96;;
49543;Laerm;35435;48.792;8.962;2022-08-03T09:37:32;42.43;39.31;53.36;;
49543;Laerm;35435;48.792;8.962;2022-08-03T09:39:58;43.82;39.87;59.80;;
49543;Laerm;35435;48.792;8.962;2022-08-03T09:42:23;42.83;39.67;50.20;;
49543;Laerm;35435;48.792;8.962;2022-08-03T09:44:49;42.55;39.84;60.29;;
49543;Laerm;35435;48.792;8.962;2022-08-03T09:47:16;62.46;40.03;78.80;;
49543;Laerm;35435;48.792;8.962;2022-08-03T09:49:55;42.54;39.43;50.62;;
49543;Laerm;35435;48.792;8.962;2022-08-03T09:54:40;42.78;40.21;59.51;;
49543;Laerm;35435;48.792;8.962;2022-08-03T09:57:06;43.55;41.24;52.12;;
49543;Laerm;35435;48.792;8.962;2022-08-03T09:59:32;44.00;40.67;49.45;;
49543;Laerm;35435;48.792;8.962;2022-08-03T10:01:58;60.30;40.57;79.69;;
49543;Laerm;35435;48.792;8.962;2022-08-03T10:04:26;48.81;40.05;77.31;;
49543;Laerm;35435;48.792;8.962;2022-08-03T10:07:01;43.54;40.62;60.66;;
49543;Laerm;35435;48.792;8.962;2022-08-03T10:09:28;45.09;42.01;68.02;;
49543;Laerm;35435;48.792;8.962;2022-08-03T10:11:53;45.75;41.89;52.65;;
49543;Laerm;35435;48.792;8.962;2022-08-03T10:14:19;54.35;43.29;73.10;;
49543;Laerm;35435;48.792;8.962;2022-08-03T10:16:45;62.20;43.31;78.37;;
49543;Laerm;35435;48.792;8.962;2022-08-03T11:44:41;46.29;40.13;54.69;;
49543;Laerm;35435;48.792;8.962;2022-08-03T11:47:07;62.85;41.08;79.16;;
49543;Laerm;35435;48.792;8.962;2022-08-03T11:49:33;56.03;40.69;71.35;;
49543;Laerm;35435;48.792;8.962;2022-08-03T11:51:58;53.18;39.64;72.61;;
49543;Laerm;35435;48.792;8.962;2022-08-03T11:54:23;42.32;39.18;44.78;;
49543;Laerm;35435;48.792;8.962;2022-08-03T11:56:49;42.82;40.11;58.25;;
49543;Laerm;35435;48.792;8.962;2022-08-03T11:59:15;44.29;40.73;51.63;;
49543;Laerm;35435;48.792;8.962;2022-08-03T12:01:42;60.29;41.63;79.65;;
49543;Laerm;35435;48.792;8.962;2022-08-03T12:04:08;45.00;41.20;52.53;;
49543;Laerm;35435;48.792;8.962;2022-08-03T12:06:34;44.64;41.44;52.71;;
49543;Laerm;35435;48.792;8.962;2022-08-03T12:09:02;43.79;40.95;60.07;;
49543;Laerm;35435;48.792;8.962;2022-08-03T12:11:29;44.16;41.18;52.39;;
49543;Laerm;35435;48.792;8.962;2022-08-03T12:13:55;44.69;42.14;54.08;;
49543;Laerm;35435;48.792;8.962;2022-08-03T12:16:21;62.17;42.04;78.73;;
49543;Laerm;35435;48.792;8.962;2022-08-03T12:18:54;46.98;40.13;55.85;;
49543;Laerm;35435;48.792;8.962;2022-08-03T12:21:19;42.12;39.21;50.02;;
49543;Laerm;35435;48.792;8.962;2022-08-03T12:23:46;42.98;39.15;63.52;;
49543;Laerm;35435;48.792;8.962;2022-08-03T12:26:12;42.20;39.43;48.98;;
49543;Laerm;35435;48.792;8.962;2022-08-03T12:28:37;42.75;39.31;53.58;;
49543;Laerm;35435;48.792;8.962;2022-08-03T12:31:05;56.81;37.75;78.71;;
49543;Laerm;35435;48.792;8.962;2022-08-03T12:33:32;57.80;39.08;73.09;;
49543;Laerm;35435;48.792;8.962;2022-08-03T12:36:03;41.29;37.70;45.66;;
49543;Laerm;35435;48.792;8.962;2022-08-03T12:38:29;41.70;38.49;48.98;;
49543;Laerm;35435;48.792;8.962;2022-08-03T12:40:59;42.66;39.40;51.79;;
49543;Laerm;35435;48.792;8.962;2022-08-03T12:43:24;42.02;39.02;45.72;;
49543;Laerm;35435;48.792;8.962;2022-08-03T12:45:50;60.93;39.15;80.75;;
49543;Laerm;35435;48.792;8.962;2022-08-03T12:48:15;58.97;38.85;73.52;;
49543;Laerm;35435;48.792;8.962;2022-08-03T12:50:41;42.71;38.81;53.83;;
49543;Laerm;35435;48.792;8.962;2022-08-03T12:53:07;44.33;39.28;54.81;;
49543;Laerm;35435;48.792;8.962;2022-08-03T12:55:33;42.33;38.98;50.76;;
49543;Laerm;35435;48.792;8.962;2022-08-03T12:57:59;42.52;39.02;56.53;;
49543;Laerm;35435;48.792;8.962;2022-08-03T13:00:25;57.04;40.23;74.93;;
49543;Laerm;35435;48.792;8.962;2022-08-03T13:02:58;58.41;39.92;75.45;;
49543;Laerm;35435;48.792;8.962;2022-08-03T13:05:25;43.21;40.50;47.14;;
49543;Laerm;35435;48.792;8.962;2022-08-03T13:07:50;58.51;41.36;72.62;;
49543;Laerm;35435;48.792;8.962;2022-08-03T13:10:29;43.66;40.53;46.48;;
49543;Laerm;35435;48.792;8.962;2022-08-03T13:12:55;43.81;41.48;50.69;;
49543;Laerm;35435;48.792;8.962;2022-08-03T13:15:23;59.46;40.95;78.46;;
49543;Laerm;35435;48.792;8.962;2022-08-03T13:17:50;59.02;41.20;72.72;;
49543;Laerm;35435;48.792;8.962;2022-08-03T13:20:16;47.10;40.31;55.84;;
49543;Laerm;35435;48.792;8.962;2022-08-03T13:22:41;44.26;41.64;58.25;;
49543;Laerm;35435;48.792;8.962;2022-08-03T13:25:09;43.29;40.21;54.68;;
49543;Laerm;35435;48.792;8.962;2022-08-03T13:27:35;43.83;40.76;51.34;;
49543;Laerm;35435;48.792;8.962;2022-08-03T13:30:00;46.38;40.76;62.58;;
49543;Laerm;35435;48.792;8.962;2022-08-03T13:32:25;60.03;42.14;75.87;;
49543;Laerm;35435;48.792;8.962;2022-08-03T13:34:51;42.96;40.87;45.32;;
49543;Laerm;35435;48.792;8.962;2022-08-03T13:37:16;64.94;39.46;82.52;;
49543;Laerm;35435;48.792;8.962;2022-08-03T13:39:42;42.38;39.73;51.46;;
49543;Laerm;35435;48.792;8.962;2022-08-03T13:42:07;42.68;39.95;56.49;;
49543;Laerm;35435;48.792;8.962;2022-08-03T13:44:33;46.74;39.75;57.75;;
49543;Laerm;35435;48.792;8.962;2022-08-03T13:47:00;60.00;43.22;74.65;;
49543;Laerm;35435;48.792;8.962;2022-08-03T13:49:26;44.22;41.14;52.57;;
49543;Laerm;35435;48.792;8.962;2022-08-03T13:51:51;59.81;40.89;75.83;;
49543;Laerm;35435;48.792;8.962;2022-08-03T13:54:17;43.73;41.24;53.96;;
49543;Laerm;35435;48.792;8.962;2022-08-03T13:56:43;43.67;40.69;53.21;;
49543;Laerm;35435;48.792;8.962;2022-08-03T13:59:10;44.10;40.21;50.28;;
49543;Laerm;35435;48.792;8.962;2022-08-03T14:01:36;60.03;42.37;75.46;;
49543;Laerm;35435;48.792;8.962;2022-08-03T14:04:01;44.64;41.82;50.94;;
49543;Laerm;35435;48.792;8.962;2022-08-03T14:06:27;45.25;42.68;53.17;;
49543;Laerm;35435;48.792;8.962;2022-08-03T14:08:52;45.47;41.96;53.23;;
49543;Laerm;35435;48.792;8.962;2022-08-03T14:11:18;45.55;42.19;58.46;;
49543;Laerm;35435;48.792;8.962;2022-08-03T14:13:43;46.60;41.96;56.57;;
49543;Laerm;35435;48.792;8.962;2022-08-03T14:16:09;58.96;42.68;76.10;;
49543;Laerm;35435;48.792;8.962;2022-08-03T14:18:34;58.54;43.33;75.84;;
49543;Laerm;35435;48.792;8.962;2022-08-03T14:21:03;46.15;41.63;54.40;;
49543;Laerm;35435;48.792;8.962;2022-08-03T14:23:29;64.67;42.40;83.76;;
49543;Laerm;35435;48.792;8.962;2022-08-03T14:25:55;45.52;42.65;52.78;;
49543;Laerm;35435;48.792;8.962;2022-08-03T14:28:20;52.40;42.29;72.14;;
49543;Laerm;35435;48.792;8.962;2022-08-03T14:30:46;57.37;42.09;79.47;;
49543;Laerm;35435;48.792;8.962;2022-08-03T14:33:12;57.67;42.78;72.36;;
49543;Laerm;35435;48.792;8.962;2022-08-03T14:35:38;44.68;41.55;52.16;;
49543;Laerm;35435;48.792;8.962;2022-08-03T14:38:04;44.55;41.94;57.55;;
49543;Laerm;35435;48.792;8.962;2022-08-03T14:40:29;46.34;42.83;55.92;;
49543;Laerm;35435;48.792;8.962;2022-08-03T14:42:55;46.88;43.26;57.32;;
49543;Laerm;35435;48.792;8.962;2022-08-03T14:45:21;59.63;43.01;77.53;;
49543;Laerm;35435;48.792;8.962;2022-08-03T14:47:46;59.13;41.73;72.65;;
49543;Laerm;35435;48.792;8.962;2022-08-03T14:50:12;45.14;41.14;54.74;;
49543;Laerm;35435;48.792;8.962;2022-08-03T14:52:37;43.58;40.53;60.75;;
49543;Laerm;35435;48.792;8.962;2022-08-03T14:55:02;44.39;41.51;54.55;;
49543;Laerm;35435;48.792;8.962;2022-08-03T14:57:28;45.10;41.34;55.55;;
49543;Laerm;35435;48.792;8.962;2022-08-03T14:59:53;57.63;42.64;74.84;;
49543;Laerm;35435;48.792;8.962;2022-08-03T15:02:19;57.12;42.32;73.18;;
49543;Laerm;35435;48.792;8.962;2022-08-03T15:04:44;63.65;41.97;83.08;;
49543;Laerm;35435;48.792;8.962;2022-08-03T15:07:10;45.00;42.27;53.04;;
49543;Laerm;35435;48.792;8.962;2022-08-03T15:09:35;48.49;42.19;59.35;;
49543;Laerm;35435;48.792;8.962;2022-08-03T15:12:02;45.20;41.66;52.39;;
49543;Laerm;35435;48.792;8.962;2022-08-03T15:14:28;50.66;41.51;68.90;;
49543;Laerm;35435;48.792;8.962;2022-08-03T15:16:55;59.02;42.37;81.06;;
49543;Laerm;35435;48.792;8.962;2022-08-03T15:19:21;64.73;44.14;82.93;;
49543;Laerm;35435;48.792;8.962;2022-08-03T15:21:46;47.42;43.92;59.09;;
49543;Laerm;35435;48.792;8.962;2022-08-03T15:24:11;48.54;44.58;56.89;;